Time;durP1;ratioP1;P1;durP2;ratioP2;P2;SDS_P1;SDS_P2;PMS_P1;PMS_P2;Temp;Humidity;BMP_temperature;BMP_pressure;BME280_temperature;BME280_humidity;BME280_pressure;Samples;Min_cycle;Max_cycle;Signal;HPM_P1;HPM_P2
2022/11/05 00:10:02;;;;;;;13.48;9.05;;;11.70;66.50;;;;;;4977566;28;20069;-43
2022/11/05 00:18:01;;;;;;;15.68;9.02;;;11.70;66.80;;;;;;5008696;28;20064;-43
2022/11/05 00:20:28;;;;;;;14.77;9.10;;;11.80;66.90;;;;;;5010550;28;20489;-41
2022/11/05 00:25:54;;;;;;;11.02;6.55;;;11.90;66.90;;;;;;5009257;28;20504;-40
2022/11/05 00:28:21;;;;;;;13.10;6.22;;;11.90;66.60;;;;;;5007400;28;20053;-40
2022/11/05 00:30:49;;;;;;;9.98;6.22;;;11.90;66.40;;;;;;5001570;28;20045;-43
2022/11/05 00:33:17;;;;;;;11.23;6.28;;;12.00;66.50;;;;;;5011893;28;20054;-39
2022/11/05 00:35:45;;;;;;;16.35;8.27;;;12.00;66.50;;;;;;5015138;28;20065;-41
2022/11/05 00:38:12;;;;;;;11.75;6.65;;;12.00;66.30;;;;;;5003404;28;20525;-40
2022/11/05 00:40:39;;;;;;;14.98;7.50;;;12.10;66.10;;;;;;5004926;28;20127;-44
2022/11/05 00:45:51;;;;;;;10.65;5.75;;;12.20;65.60;;;;;;5009011;28;20056;-41
2022/11/05 00:51:13;;;;;;;12.07;6.05;;;12.20;65.10;;;;;;4994751;28;20061;-39
2022/11/05 00:53:40;;;;;;;9.98;6.15;;;12.20;65.00;;;;;;5011875;28;20417;-40
2022/11/05 00:56:07;;;;;;;13.00;7.35;;;12.30;65.00;;;;;;5007204;28;20056;-40
2022/11/05 00:58:35;;;;;;;22.17;11.93;;;12.30;65.00;;;;;;5003549;28;20054;-44
2022/11/05 01:01:03;;;;;;;22.02;11.90;;;12.30;64.80;;;;;;5003948;28;20045;-43
2022/11/05 01:03:34;;;;;;;21.10;13.35;;;12.30;64.60;;;;;;5009619;28;20547;-42
2022/11/05 01:06:07;;;;;;;22.85;14.02;;;12.30;64.60;;;;;;5021625;28;20045;-40
2022/11/05 01:08:35;;;;;;;29.27;15.80;;;12.30;64.50;;;;;;5023319;28;20064;-42
2022/11/05 01:11:09;;;;;;;25.55;15.20;;;12.30;64.50;;;;;;5017724;28;20057;-43
2022/11/05 01:13:36;;;;;;;29.27;18.67;;;12.30;64.50;;;;;;5023213;28;20390;-41
2022/11/05 01:16:07;;;;;;;26.33;18.00;;;12.30;64.40;;;;;;5022176;28;20050;-44
2022/11/05 01:18:36;;;;;;;31.67;18.70;;;12.30;64.40;;;;;;5021847;28;20493;-41
2022/11/05 01:21:11;;;;;;;26.63;16.85;;;12.30;64.40;;;;;;5019339;28;20056;-40
2022/11/05 01:23:38;;;;;;;;;;;12.30;64.40;;;;;;5023639;28;20061;-40
2022/11/05 01:26:05;;;;;;;30.55;17.27;;;12.30;64.50;;;;;;5021925;28;19932;-41
2022/11/05 01:28:32;;;;;;;29.63;17.42;;;12.30;64.10;;;;;;5021966;28;20061;-40
2022/11/05 01:31:00;;;;;;;42.17;20.00;;;12.40;64.20;;;;;;5019552;28;20062;-41
2022/11/05 01:33:27;;;;;;;27.63;17.63;;;12.40;64.30;;;;;;5022787;28;20057;-41
2022/11/05 01:35:56;;;;;;;32.10;18.20;;;12.30;64.20;;;;;;5022160;28;20416;-40
2022/11/05 01:38:23;;;;;;;33.53;18.67;;;12.30;64.40;;;;;;5022138;28;20049;-42
2022/11/05 01:40:50;;;;;;;35.72;20.98;;;12.30;64.50;;;;;;5022310;28;20060;-41
2022/11/05 01:43:20;;;;;;;38.70;19.63;;;12.30;64.40;;;;;;5026927;28;20053;-40
2022/11/05 01:45:51;;;;;;;28.52;18.80;;;12.30;64.50;;;;;;5025236;28;20511;-42
2022/11/05 01:48:21;;;;;;;33.88;17.92;;;12.30;64.50;;;;;;5026567;28;21618;-42
2022/11/05 01:50:53;;;;;;;35.80;17.92;;;12.30;64.50;;;;;;5023348;28;20053;-42
2022/11/05 01:53:28;;;;;;;26.33;17.10;;;12.30;64.50;;;;;;5024955;28;20061;-45
2022/11/05 01:56:00;;;;;;;27.27;17.05;;;12.30;64.50;;;;;;5026017;28;20068;-43
2022/11/05 01:58:37;;;;;;;25.90;17.42;;;12.30;64.40;;;;;;5025437;28;20057;-46
2022/11/05 02:01:05;;;;;;;25.30;16.33;;;12.30;64.50;;;;;;5022870;28;20053;-41
2022/11/05 02:03:32;;;;;;;27.58;17.52;;;12.30;64.40;;;;;;5027359;28;20061;-43
2022/11/05 02:06:02;;;;;;;30.25;18.80;;;12.30;64.40;;;;;;5027675;28;20045;-40
2022/11/05 02:08:42;;;;;;;30.98;17.92;;;12.30;64.40;;;;;;5026360;28;20061;-42
2022/11/05 02:11:10;;;;;;;29.00;16.45;;;12.30;64.40;;;;;;5023330;28;20516;-39
2022/11/05 02:13:38;;;;;;;27.50;16.75;;;12.30;64.30;;;;;;5027834;28;20068;-39
2022/11/05 02:16:13;;;;;;;30.17;17.60;;;12.30;64.30;;;;;;5025848;28;20053;-44
2022/11/05 02:18:50;;;;;;;26.65;16.75;;;12.30;64.40;;;;;;5026114;28;20493;-44
2022/11/05 02:21:41;;;;;;;26.20;15.80;;;12.30;64.40;;;;;;5023800;28;20401;-41
2022/11/05 02:24:40;;;;;;;31.55;16.65;;;12.20;64.50;;;;;;5027293;28;20057;-41
2022/11/05 02:27:17;;;;;;;30.08;17.95;;;12.20;64.40;;;;;;5026197;28;20057;-42
2022/11/05 02:30:07;;;;;;;31.23;16.63;;;12.20;64.40;;;;;;5027296;28;20060;-45
2022/11/05 02:33:01;;;;;;;28.67;16.60;;;12.10;65.00;;;;;;5026623;28;20398;-42
2022/11/05 02:35:37;;;;;;;;;;;12.20;64.40;;;;;;5026559;28;20501;-44
2022/11/05 02:38:09;;;;;;;29.35;17.60;;;12.20;64.50;;;;;;5021799;28;20933;-43
2022/11/05 02:40:44;;;;;;;26.23;16.00;;;12.20;64.20;;;;;;5021387;28;20057;-43
2022/11/05 02:43:16;;;;;;;36.13;19.27;;;12.20;64.30;;;;;;5025038;28;20064;-43
2022/11/05 02:45:49;;;;;;;31.25;16.73;;;12.20;64.30;;;;;;5025674;28;20056;-42
2022/11/05 02:48:23;;;;;;;27.37;17.93;;;12.20;64.30;;;;;;5026982;28;20517;-48
2022/11/05 02:50:58;;;;;;;29.88;17.80;;;12.10;64.20;;;;;;5022081;28;20052;-46
2022/11/05 02:53:34;;;;;;;33.83;18.42;;;12.10;64.10;;;;;;5023701;28;20056;-44
2022/11/05 02:56:05;;;;;;;27.92;17.38;;;12.10;64.20;;;;;;5022731;28;20049;-41
2022/11/05 02:58:34;;;;;;;31.80;18.33;;;12.10;64.20;;;;;;5024159;28;20049;-42
2022/11/05 03:01:05;;;;;;;25.92;16.95;;;12.10;64.20;;;;;;5022902;28;20054;-44
2022/11/05 03:03:38;;;;;;;38.15;18.75;;;12.10;64.20;;;;;;5026579;28;20495;-43
2022/11/05 03:06:18;;;;;;;25.83;17.33;;;12.10;64.10;;;;;;5026195;28;20049;-44
2022/11/05 03:09:02;;;;;;;24.10;15.75;;;12.10;63.90;;;;;;5024849;28;20053;-42
2022/11/05 03:11:32;;;;;;;31.92;18.58;;;12.10;63.80;;;;;;5021826;28;20058;-43
2022/11/05 03:14:08;;;;;;;28.67;17.13;;;12.10;63.70;;;;;;5026697;28;20414;-45
2022/11/05 03:16:40;;;;;;;26.58;17.23;;;12.10;63.50;;;;;;5025493;28;20045;-40
2022/11/05 03:19:15;;;;;;;24.60;16.88;;;12.00;63.40;;;;;;5019720;28;20064;-49
2022/11/05 03:21:47;;;;;;;28.45;17.52;;;12.00;63.40;;;;;;5020701;28;20064;-41
2022/11/05 03:24:18;;;;;;;23.88;15.80;;;12.00;63.40;;;;;;5024286;28;20045;-42
2022/11/05 03:26:52;;;;;;;25.88;16.75;;;12.00;63.40;;;;;;5024625;28;20052;-41
2022/11/05 03:29:22;;;;;;;25.92;16.90;;;12.00;63.40;;;;;;5025405;28;20060;-46
2022/11/05 03:31:52;;;;;;;31.40;16.30;;;12.00;63.30;;;;;;5018200;28;20424;-44
2022/11/05 03:34:27;;;;;;;24.85;16.02;;;12.00;63.20;;;;;;5024631;28;20064;-45
2022/11/05 03:36:57;;;;;;;28.63;15.77;;;12.00;63.20;;;;;;5021006;28;20049;-41
2022/11/05 03:39:31;;;;;;;26.90;15.45;;;12.00;63.80;;;;;;5025314;28;20076;-44
2022/11/05 03:42:00;;;;;;;32.33;15.90;;;12.00;63.00;;;;;;5023908;28;20060;-42
2022/11/05 03:44:30;;;;;;;27.55;15.32;;;12.00;62.90;;;;;;5023839;28;20060;-43
2022/11/05 03:47:02;;;;;;;26.55;15.63;;;12.00;62.80;;;;;;5024465;28;20405;-51
2022/11/05 03:49:35;;;;;;;21.95;13.98;;;11.90;62.70;;;;;;5025021;28;20489;-50
2022/11/05 03:52:07;;;;;;;24.88;15.60;;;11.90;62.60;;;;;;5021693;28;20046;-43
2022/11/05 03:54:35;;;;;;;22.33;15.02;;;11.90;62.50;;;;;;5027232;28;20049;-42
2022/11/05 03:57:07;;;;;;;25.20;16.58;;;11.90;62.40;;;;;;5026493;28;20053;-42
2022/11/05 03:59:40;;;;;;;25.83;15.98;;;11.90;62.40;;;;;;5024749;28;20060;-42
2022/11/05 04:02:08;;;;;;;28.83;16.63;;;11.90;62.40;;;;;;5023505;28;20049;-43
2022/11/05 04:04:37;;;;;;;26.25;17.00;;;11.90;62.40;;;;;;5009995;28;20062;-41
2022/11/05 04:15:28;;;;;;;25.55;16.67;;;11.80;62.40;;;;;;4989134;28;21117;-41
2022/11/05 04:17:57;;;;;;;27.05;15.55;;;11.80;62.40;;;;;;5000911;28;20054;-41
2022/11/05 04:25:55;;;;;;;29.52;14.88;;;11.70;62.60;;;;;;5006207;28;20064;-40
2022/11/05 04:30:17;;;;;;;27.58;16.65;;;11.70;62.70;;;;;;4985626;28;20489;-46
2022/11/05 04:31:09;;;;;;;25.25;14.27;;;11.70;62.80;;;;;;4997126;28;20062;-42
2022/11/05 04:33:36;;;;;;;29.98;16.77;;;11.70;62.90;;;;;;4999905;28;20423;-41
2022/11/05 04:36:06;;;;;;;23.70;15.05;;;11.70;62.90;;;;;;5001327;28;20054;-42
2022/11/05 04:38:33;;;;;;;20.40;13.20;;;11.70;63.00;;;;;;4986168;28;20057;-43
2022/11/05 04:41:13;;;;;;;26.20;15.35;;;11.70;63.10;;;;;;5000000;28;20515;-42
2022/11/05 04:43:42;;;;;;;30.45;16.42;;;11.70;63.30;;;;;;5003874;28;20077;-40
2022/11/05 04:46:09;;;;;;;27.42;15.63;;;11.70;63.30;;;;;;5000331;28;20064;-44
2022/11/05 04:48:37;;;;;;;21.15;13.45;;;11.70;63.20;;;;;;5002990;28;20052;-42
2022/11/05 04:51:07;;;;;;;21.90;13.90;;;11.70;63.20;;;;;;5000114;28;20057;-42
2022/11/05 04:53:34;;;;;;;20.83;13.27;;;11.70;63.20;;;;;;5003251;28;20061;-45
2022/11/05 04:56:09;;;;;;;17.77;12.60;;;11.80;63.30;;;;;;4999997;28;20413;-42
2022/11/05 04:58:40;;;;;;;22.30;13.68;;;11.80;63.30;;;;;;5001809;28;20054;-42
2022/11/05 05:01:12;;;;;;;22.08;13.60;;;11.80;63.30;;;;;;4997841;28;20061;-48
2022/11/05 05:03:39;;;;;;;28.88;15.27;;;11.80;63.30;;;;;;5008523;28;20053;-41
2022/11/05 05:06:09;;;;;;;22.63;14.27;;;11.80;63.20;;;;;;5035983;28;20065;-41
2022/11/05 05:08:36;;;;;;;20.40;13.55;;;11.80;63.10;;;;;;5036104;28;20048;-42
2022/11/05 05:11:03;;;;;;;22.30;13.57;;;11.80;63.10;;;;;;5027538;28;20049;-41
2022/11/05 05:13:31;;;;;;;20.45;13.30;;;11.80;63.00;;;;;;5037827;28;20057;-42
2022/11/05 05:15:59;;;;;;;25.33;15.18;;;11.90;63.70;;;;;;5031294;28;20049;-42
2022/11/05 05:18:26;;;;;;;21.25;14.10;;;11.90;63.00;;;;;;5031446;28;20119;-43
2022/11/05 05:23:43;;;;;;;23.88;14.35;;;11.90;62.80;;;;;;5041619;28;20056;-45
2022/11/05 05:26:10;;;;;;;23.58;15.18;;;11.90;62.70;;;;;;5038996;28;20061;-40
2022/11/05 05:28:38;;;;;;;22.08;13.45;;;11.90;62.60;;;;;;5038286;28;20049;-39
2022/11/05 05:31:06;;;;;;;28.00;16.58;;;11.90;62.60;;;;;;5030347;28;20049;-48
2022/11/05 05:33:33;;;;;;;22.75;14.70;;;11.90;62.40;;;;;;5038768;28;20045;-43
2022/11/05 05:36:01;;;;;;;23.42;14.52;;;11.90;62.40;;;;;;5038571;28;20049;-42
2022/11/05 05:38:28;;;;;;;23.30;14.05;;;11.90;62.50;;;;;;5034491;28;20068;-44
2022/11/05 05:41:00;;;;;;;21.48;13.68;;;11.90;62.50;;;;;;5030664;28;20046;-42
2022/11/05 05:43:30;;;;;;;21.65;12.25;;;11.90;62.50;;;;;;5041594;28;20049;-41
2022/11/05 05:45:57;;;;;;;21.98;13.63;;;11.90;62.60;;;;;;5037193;28;20057;-42
2022/11/05 05:48:24;;;;;;;17.73;11.82;;;11.90;62.50;;;;;;5040926;28;20048;-40
2022/11/05 05:50:52;;;;;;;23.75;14.60;;;11.90;62.40;;;;;;5032745;28;20500;-40
2022/11/05 05:53:19;;;;;;;18.95;12.80;;;11.90;62.10;;;;;;5038869;28;20057;-42
2022/11/05 05:55:46;;;;;;;21.15;12.93;;;11.90;62.00;;;;;;5037591;28;20056;-44
2022/11/05 05:58:15;;;;;;;23.98;13.65;;;11.80;61.90;;;;;;5037937;28;20503;-41
2022/11/05 06:00:42;;;;;;;22.23;12.68;;;11.80;61.60;;;;;;5033685;28;20057;-42
2022/11/05 06:03:09;;;;;;;18.80;12.57;;;11.80;61.50;;;;;;5040404;28;20469;-41
2022/11/05 06:05:36;;;;;;;22.60;13.82;;;11.80;61.30;;;;;;5037559;28;20057;-41
2022/11/05 06:08:04;;;;;;;22.17;13.60;;;11.80;61.10;;;;;;5033762;28;20476;-40
2022/11/05 06:10:31;;;;;;;25.00;13.70;;;11.80;61.10;;;;;;5031584;28;20400;-41
2022/11/05 06:12:59;;;;;;;20.63;13.27;;;11.80;60.80;;;;;;5040431;28;20048;-41
2022/11/05 06:15:28;;;;;;;72.75;37.13;;;11.70;60.70;;;;;;5036848;28;20057;-41
2022/11/05 06:17:55;;;;;;;39.13;23.83;;;11.70;60.60;;;;;;5039813;28;20049;-42
2022/11/05 06:20:22;;;;;;;38.65;20.20;;;11.70;60.60;;;;;;5035060;28;20061;-40
2022/11/05 06:22:54;;;;;;;30.02;17.77;;;11.60;60.40;;;;;;5032785;28;20056;-41
2022/11/05 06:25:22;;;;;;;31.77;19.33;;;11.60;60.40;;;;;;5039617;28;20061;-39
2022/11/05 06:27:49;;;;;;;29.70;18.60;;;11.50;60.50;;;;;;5043757;28;20116;-40
2022/11/05 06:30:16;;;;;;;24.75;15.93;;;11.60;60.70;;;;;;5038158;28;20504;-42
2022/11/05 06:32:45;;;;;;;24.85;15.40;;;11.50;60.80;;;;;;5038153;28;20056;-41
2022/11/05 06:35:12;;;;;;;21.67;13.80;;;11.50;60.90;;;;;;5039241;28;20516;-43
2022/11/05 06:37:40;;;;;;;21.95;14.20;;;11.50;61.00;;;;;;5032780;28;20052;-45
2022/11/05 06:40:08;;;;;;;17.98;12.55;;;11.50;61.10;;;;;;5039537;28;20500;-42
2022/11/05 06:42:35;;;;;;;19.70;12.20;;;11.50;61.20;;;;;;5043630;28;20503;-40
2022/11/05 06:45:03;;;;;;;19.10;12.48;;;11.50;61.30;;;;;;5038861;28;20076;-41
2022/11/05 06:47:30;;;;;;;19.10;12.90;;;11.50;61.40;;;;;;5042435;28;20058;-40
2022/11/05 06:49:59;;;;;;;16.77;10.82;;;11.50;61.50;;;;;;5039792;28;20488;-41
2022/11/05 06:52:30;;;;;;;18.38;11.60;;;11.50;61.50;;;;;;5039169;28;20053;-43
2022/11/05 06:54:57;;;;;;;15.88;10.95;;;11.50;61.50;;;;;;5041032;28;20055;-42
2022/11/05 06:57:25;;;;;;;19.95;12.23;;;11.50;61.50;;;;;;5041477;28;20060;-44
2022/11/05 06:59:52;;;;;;;16.67;11.48;;;11.50;61.50;;;;;;5041585;28;20049;-42
2022/11/05 07:02:19;;;;;;;18.13;12.02;;;11.50;61.50;;;;;;5026430;28;20056;-41
2022/11/05 07:04:46;;;;;;;17.08;11.32;;;11.50;61.60;;;;;;5040513;28;20080;-44
2022/11/05 07:07:15;;;;;;;16.77;11.65;;;11.50;61.60;;;;;;5039007;28;20060;-43
2022/11/05 07:09:43;;;;;;;15.88;11.20;;;11.50;61.60;;;;;;5040082;28;20047;-44
2022/11/05 07:12:10;;;;;;;18.55;11.35;;;11.50;61.60;;;;;;5037054;28;20388;-40
2022/11/05 07:14:38;;;;;;;21.20;12.40;;;11.50;61.50;;;;;;5037913;28;20941;-40
2022/11/05 07:17:05;;;;;;;17.25;11.85;;;11.50;61.50;;;;;;5039469;28;20068;-43
2022/11/05 07:19:32;;;;;;;18.15;11.63;;;11.50;61.40;;;;;;5038942;28;21549;-42
2022/11/05 07:21:59;;;;;;;15.23;10.60;;;11.50;61.40;;;;;;5038897;28;20052;-41
2022/11/05 07:24:28;;;;;;;17.40;11.43;;;11.50;61.40;;;;;;5039120;28;20060;-42
2022/11/05 07:26:55;;;;;;;16.30;9.45;;;11.50;61.50;;;;;;5039003;28;20485;-43
2022/11/05 07:29:22;;;;;;;12.95;8.60;;;11.50;61.50;;;;;;5036662;28;20057;-48
2022/11/05 07:31:50;;;;;;;14.13;8.93;;;11.50;61.50;;;;;;5036256;28;20053;-42
2022/11/05 07:34:17;;;;;;;12.50;8.05;;;11.50;61.60;;;;;;5037893;28;20065;-41
2022/11/05 07:36:44;;;;;;;12.88;8.13;;;11.50;61.70;;;;;;5040691;28;20052;-43
2022/11/05 07:39:11;;;;;;;15.10;9.52;;;11.50;61.80;;;;;;5038343;28;20053;-43
2022/11/05 07:41:40;;;;;;;14.00;9.40;;;11.50;61.90;;;;;;5036568;28;20519;-40
2022/11/05 07:44:07;;;;;;;12.48;8.70;;;11.50;61.80;;;;;;5041436;28;20053;-42
2022/11/05 07:46:35;;;;;;;12.70;9.13;;;11.50;61.80;;;;;;5042479;28;20057;-40
2022/11/05 07:49:02;;;;;;;13.88;9.15;;;11.60;61.80;;;;;;5038252;28;20509;-42
2022/11/05 07:51:29;;;;;;;15.80;10.32;;;11.60;61.70;;;;;;5032900;28;20053;-42
2022/11/05 07:53:56;;;;;;;17.55;11.32;;;11.60;61.60;;;;;;5032469;28;20061;-40
2022/11/05 07:56:24;;;;;;;147.20;56.95;;;11.60;61.60;;;;;;5042629;28;20492;-46
2022/11/05 07:58:52;;;;;;;97.07;41.80;;;11.60;61.60;;;;;;5037894;28;20049;-45
2022/11/05 08:01:19;;;;;;;41.40;21.00;;;11.60;61.70;;;;;;5036278;28;20385;-42
2022/11/05 08:03:46;;;;;;;21.10;13.02;;;11.60;61.60;;;;;;5038782;28;20053;-39
2022/11/05 08:06:14;;;;;;;18.35;11.52;;;11.60;61.60;;;;;;5039093;28;20056;-41
2022/11/05 08:08:41;;;;;;;19.95;12.20;;;11.70;61.60;;;;;;5034714;28;20987;-43
2022/11/05 08:11:10;;;;;;;18.02;11.00;;;11.60;61.50;;;;;;5032973;28;20057;-42
2022/11/05 08:13:38;;;;;;;16.65;10.88;;;11.60;61.50;;;;;;5038204;28;20049;-42
2022/11/05 08:16:08;;;;;;;19.98;12.30;;;11.60;61.40;;;;;;5039519;28;20049;-41
2022/11/05 08:18:35;;;;;;;20.30;12.48;;;11.60;61.40;;;;;;5038141;28;20507;-40
2022/11/05 08:21:05;;;;;;;19.45;11.38;;;11.60;61.30;;;;;;5036793;28;20059;-44
2022/11/05 08:23:32;;;;;;;17.85;10.90;;;11.60;61.30;;;;;;5040911;28;20057;-42
2022/11/05 08:26:03;;;;;;;15.15;9.55;;;11.60;61.30;;;;;;5039509;28;20432;-41
2022/11/05 08:28:30;;;;;;;15.98;9.07;;;11.60;61.40;;;;;;5039112;28;20060;-42
2022/11/05 08:30:58;;;;;;;14.35;8.73;;;11.60;61.50;;;;;;5034117;28;20061;-43
2022/11/05 08:33:28;;;;;;;15.20;9.20;;;11.60;61.70;;;;;;5038088;28;20053;-41
2022/11/05 08:35:55;;;;;;;14.55;9.43;;;11.70;61.80;;;;;;5041791;28;20064;-42
2022/11/05 08:38:22;;;;;;;12.20;8.70;;;11.60;61.80;;;;;;5037559;28;20079;-43
2022/11/05 08:40:55;;;;;;;14.65;9.30;;;11.70;61.90;;;;;;5029902;28;20049;-41
2022/11/05 08:43:22;;;;;;;14.45;8.45;;;11.70;62.10;;;;;;5043241;28;20063;-42
2022/11/05 08:45:50;;;;;;;12.15;7.47;;;11.70;62.10;;;;;;5037305;28;20063;-43
2022/11/05 08:48:18;;;;;;;11.38;6.43;;;11.70;62.20;;;;;;5041306;28;20404;-40
2022/11/05 08:50:48;;;;;;;10.20;5.78;;;11.70;62.30;;;;;;5038989;28;20052;-40
2022/11/05 08:53:16;;;;;;;9.75;5.13;;;11.70;62.30;;;;;;5035885;28;20061;-43
2022/11/05 08:55:45;;;;;;;13.43;4.53;;;11.80;62.50;;;;;;5040003;28;20064;-42
2022/11/05 08:58:15;;;;;;;11.55;4.13;;;11.80;62.50;;;;;;5042351;28;20056;-46
2022/11/05 09:00:45;;;;;;;10.07;5.43;;;11.80;62.40;;;;;;5039715;28;20045;-40
2022/11/05 09:03:13;;;;;;;15.10;4.90;;;11.80;62.50;;;;;;5039947;28;20053;-42
2022/11/05 09:05:41;;;;;;;13.02;4.68;;;11.80;62.50;;;;;;5040636;28;20044;-41
2022/11/05 09:08:12;;;;;;;15.68;5.30;;;11.80;62.50;;;;;;5040689;28;20060;-40
2022/11/05 09:10:40;;;;;;;9.32;4.13;;;11.90;62.50;;;;;;5027452;28;20053;-40
2022/11/05 09:13:07;;;;;;;14.25;4.57;;;11.90;62.50;;;;;;5032916;28;20053;-45
2022/11/05 09:15:35;;;;;;;10.90;4.25;;;11.90;62.50;;;;;;5039598;28;20057;-41
2022/11/05 09:18:04;;;;;;;6.60;4.07;;;11.90;62.50;;;;;;5040054;28;20045;-41
2022/11/05 09:20:31;;;;;;;8.57;4.15;;;11.90;62.50;;;;;;5034123;28;20053;-42
2022/11/05 09:22:59;;;;;;;11.15;4.57;;;12.00;62.60;;;;;;5041659;28;20508;-44
2022/11/05 09:25:28;;;;;;;9.07;4.15;;;12.00;62.60;;;;;;5038204;28;20053;-42
2022/11/05 09:28:08;;;;;;;7.07;4.30;;;12.00;62.60;;;;;;5039908;28;20052;-40
2022/11/05 09:30:40;;;;;;;7.82;5.25;;;12.00;62.70;;;;;;5026838;28;20045;-44
2022/11/05 09:33:07;;;;;;;9.48;4.85;;;12.10;62.80;;;;;;5034338;28;20690;-41
2022/11/05 09:35:34;;;;;;;7.93;5.00;;;12.10;62.80;;;;;;5040168;28;20095;-41
2022/11/05 09:38:01;;;;;;;8.45;4.10;;;12.20;62.70;;;;;;5041402;28;20056;-40
2022/11/05 09:40:33;;;;;;;8.57;4.20;;;12.20;62.60;;;;;;5038478;28;20052;-40
2022/11/05 09:43:01;;;;;;;11.25;4.38;;;12.20;62.60;;;;;;5041978;28;20045;-39
2022/11/05 09:45:32;;;;;;;9.25;4.45;;;12.20;62.50;;;;;;5041317;28;20048;-39
2022/11/05 09:48:03;;;;;;;13.00;3.80;;;12.30;62.40;;;;;;5033227;28;20068;-42
2022/11/05 09:50:33;;;;;;;8.32;3.42;;;12.30;62.20;;;;;;5039566;28;20041;-40
2022/11/05 09:53:01;;;;;;;5.72;3.30;;;12.30;62.20;;;;;;5030557;28;20064;-42
2022/11/05 09:55:32;;;;;;;6.20;3.40;;;12.40;62.40;;;;;;5041863;28;20064;-43
2022/11/05 09:58:02;;;;;;;9.30;4.32;;;12.40;62.60;;;;;;5036222;28;20060;-40
2022/11/05 10:00:31;;;;;;;5.63;3.45;;;12.40;62.70;;;;;;5042098;28;20045;-39
2022/11/05 10:03:02;;;;;;;9.90;4.25;;;12.50;62.90;;;;;;5045214;28;20534;-43
2022/11/05 10:05:32;;;;;;;12.77;4.97;;;12.60;62.90;;;;;;5043448;28;20053;-39
2022/11/05 10:08:03;;;;;;;13.65;4.93;;;12.60;62.70;;;;;;5037939;28;20056;-42
2022/11/05 10:10:37;;;;;;;6.10;3.47;;;12.70;62.40;;;;;;5033442;28;20048;-40
2022/11/05 10:13:10;;;;;;;11.65;4.53;;;12.70;62.30;;;;;;5043265;28;20083;-44
2022/11/05 10:15:42;;;;;;;10.70;4.15;;;12.80;62.20;;;;;;5036505;28;20056;-41
2022/11/05 10:18:15;;;;;;;8.75;4.13;;;12.80;62.10;;;;;;5035811;28;20057;-44
2022/11/05 10:20:43;;;;;;;9.25;4.47;;;12.90;62.30;;;;;;5033262;28;20045;-43
2022/11/05 10:23:13;;;;;;;11.70;4.63;;;13.00;62.50;;;;;;5039714;28;20060;-42
2022/11/05 10:25:45;;;;;;;8.02;4.50;;;13.00;62.70;;;;;;5046175;28;20057;-40
2022/11/05 10:28:17;;;;;;;11.20;5.05;;;13.10;62.90;;;;;;5045055;28;20049;-40
2022/11/05 10:30:46;;;;;;;8.38;3.88;;;13.10;62.80;;;;;;5040263;28;20049;-40
2022/11/05 10:33:17;;;;;;;11.43;4.82;;;13.20;62.70;;;;;;5035885;28;20064;-41
2022/11/05 10:35:49;;;;;;;7.30;3.05;;;13.20;62.30;;;;;;5036478;28;20049;-42
2022/11/05 10:38:17;;;;;;;11.40;3.70;;;13.30;62.10;;;;;;5033958;28;20896;-44
2022/11/05 10:40:57;;;;;;;11.27;4.00;;;13.40;61.90;;;;;;5033403;28;20052;-44
2022/11/05 10:43:33;;;;;;;8.23;3.95;;;13.40;62.00;;;;;;5037134;28;20057;-47
2022/11/05 10:46:09;;;;;;;9.80;4.20;;;13.50;61.60;;;;;;5042371;28;20052;-42
2022/11/05 10:48:52;;;;;;;8.00;3.90;;;13.50;61.10;;;;;;5040459;28;20048;-43
2022/11/05 10:51:19;;;;;;;6.88;3.92;;;13.60;60.50;;;;;;5031525;28;20080;-46
2022/11/05 10:53:52;;;;;;;9.48;3.28;;;13.70;60.10;;;;;;5041690;28;20074;-45
2022/11/05 10:56:32;;;;;;;10.43;3.13;;;13.70;59.90;;;;;;5044889;28;20052;-49
2022/11/05 10:59:01;;;;;;;7.70;3.17;;;13.70;59.60;;;;;;5044635;28;20053;-44
2022/11/05 11:01:30;;;;;;;6.55;2.88;;;13.70;59.60;;;;;;5042043;28;20131;-45
2022/11/05 11:04:15;;;;;;;5.57;2.65;;;13.80;59.60;;;;;;5039653;28;20065;-47
2022/11/05 11:06:48;;;;;;;6.72;2.95;;;13.80;59.40;;;;;;5042742;28;20055;-44
2022/11/05 11:09:25;;;;;;;6.88;3.05;;;13.80;59.10;;;;;;5044757;28;20053;-46
2022/11/05 11:12:16;;;;;;;8.60;3.10;;;13.90;58.60;;;;;;5040268;28;20053;-43
2022/11/05 11:14:59;;;;;;;9.32;2.97;;;13.80;58.40;;;;;;5039674;28;21170;-48
2022/11/05 11:17:28;;;;;;;5.38;2.50;;;13.90;58.30;;;;;;5043647;28;20053;-42
2022/11/05 11:20:20;;;;;;;10.43;2.78;;;13.90;58.30;;;;;;5033475;28;20420;-46
2022/11/05 11:23:00;;;;;;;7.47;3.15;;;13.90;57.90;;;;;;5042690;28;20057;-46
2022/11/05 11:25:28;;;;;;;7.95;3.20;;;13.90;57.90;;;;;;5044212;28;20500;-43
2022/11/05 11:28:03;;;;;;;6.35;3.17;;;13.90;57.80;;;;;;5041591;28;20401;-43
2022/11/05 11:30:30;;;;;;;5.68;3.40;;;13.90;57.70;;;;;;5041088;28;20426;-41
2022/11/05 11:33:04;;;;;;;8.45;3.20;;;13.90;57.70;;;;;;5042377;28;20408;-40
2022/11/05 11:35:32;;;;;;;9.52;3.55;;;13.90;57.60;;;;;;5042282;28;20048;-45
2022/11/05 11:38:00;;;;;;;11.68;4.05;;;13.90;57.70;;;;;;5044055;28;20492;-46
2022/11/05 11:40:31;;;;;;;8.55;3.70;;;13.90;57.60;;;;;;5038128;28;20067;-43
2022/11/05 11:43:01;;;;;;;9.18;3.08;;;13.90;57.50;;;;;;5043276;28;20424;-45
2022/11/05 11:45:33;;;;;;;7.00;3.13;;;13.90;57.60;;;;;;5030183;28;20062;-42
2022/11/05 11:48:04;;;;;;;3.78;2.42;;;14.00;57.70;;;;;;5042775;28;20049;-45
2022/11/05 11:50:40;;;;;;;9.68;3.05;;;14.00;57.90;;;;;;5042339;28;20507;-41
2022/11/05 11:53:39;;;;;;;5.20;2.75;;;14.00;58.10;;;;;;5039691;28;20545;-44
2022/11/05 11:56:15;;;;;;;5.20;2.63;;;14.10;57.80;;;;;;5043288;28;20079;-41
2022/11/05 11:58:47;;;;;;;6.38;3.05;;;14.10;57.50;;;;;;5043220;28;20076;-42
2022/11/05 12:01:36;;;;;;;10.00;3.42;;;14.10;57.30;;;;;;5039782;28;20053;-41
2022/11/05 12:04:25;;;;;;;6.30;2.53;;;14.10;57.30;;;;;;5042415;28;20056;-44
2022/11/05 12:07:02;;;;;;;5.05;2.28;;;14.20;57.30;;;;;;5041955;28;20060;-41
2022/11/05 12:09:42;;;;;;;5.13;2.65;;;14.20;57.20;;;;;;5039801;28;20055;-43
2022/11/05 12:12:12;;;;;;;5.13;2.35;;;14.20;57.30;;;;;;5040430;28;20056;-41
2022/11/05 12:14:49;;;;;;;3.75;2.08;;;14.20;57.40;;;;;;5040210;28;20408;-44
2022/11/05 12:17:39;;;;;;;5.78;2.08;;;14.20;57.40;;;;;;5042383;28;20057;-40
2022/11/05 12:20:26;;;;;;;4.13;1.85;;;14.30;57.50;;;;;;5040453;28;20052;-40
2022/11/05 12:23:23;;;;;;;6.60;2.63;;;14.30;57.40;;;;;;5037088;28;20124;-41
2022/11/05 12:25:57;;;;;;;4.10;1.98;;;14.30;57.60;;;;;;5030269;28;20432;-47
2022/11/05 12:28:55;;;;;;;5.63;2.10;;;14.30;57.00;;;;;;5039835;28;20057;-48
2022/11/05 12:31:33;;;;;;;6.22;2.05;;;14.30;56.40;;;;;;5037289;28;20057;-44
2022/11/05 12:34:12;;;;;;;5.90;2.60;;;14.30;56.20;;;;;;5035918;28;20041;-47
2022/11/05 12:36:59;;;;;;;7.43;2.97;;;14.30;55.80;;;;;;5038344;28;20061;-42
2022/11/05 12:39:42;;;;;;;5.72;2.80;;;14.30;55.70;;;;;;5020816;28;20493;-43
2022/11/05 12:42:18;;;;;;;5.18;2.40;;;14.30;55.40;;;;;;5032387;28;20045;-43
2022/11/05 12:45:02;;;;;;;4.03;2.10;;;14.30;55.60;;;;;;5035267;28;20053;-46
2022/11/05 12:47:45;;;;;;;4.00;1.80;;;14.40;55.60;;;;;;5037138;28;20053;-43
2022/11/05 12:50:22;;;;;;;6.15;1.95;;;14.40;55.40;;;;;;5033149;28;20048;-42
2022/11/05 12:53:03;;;;;;;9.73;2.55;;;14.40;55.40;;;;;;5034784;28;20064;-42
2022/11/05 12:55:35;;;;;;;5.13;2.13;;;14.40;55.40;;;;;;5036628;28;20053;-45
2022/11/05 12:58:12;;;;;;;5.40;2.25;;;14.40;55.50;;;;;;5027308;28;20049;-46
2022/11/05 13:00:42;;;;;;;4.50;2.30;;;14.40;55.20;;;;;;5033247;28;20053;-44
2022/11/05 13:03:28;;;;;;;6.72;2.70;;;14.50;55.40;;;;;;5041887;28;20060;-42
2022/11/05 13:06:01;;;;;;;5.15;2.38;;;14.50;55.00;;;;;;5040022;28;20056;-44
2022/11/05 13:08:33;;;;;;;5.93;2.40;;;14.50;55.10;;;;;;5041851;28;20056;-46
2022/11/05 13:11:10;;;;;;;3.55;1.90;;;14.50;55.10;;;;;;5037934;28;20049;-41
2022/11/05 13:13:42;;;;;;;4.45;2.40;;;14.50;54.90;;;;;;5040687;28;20053;-50
2022/11/05 13:16:12;;;;;;;6.40;2.80;;;14.50;54.70;;;;;;5042888;28;20048;-43
2022/11/05 13:18:45;;;;;;;5.32;2.05;;;14.50;54.40;;;;;;5042998;28;20512;-43
2022/11/05 13:21:14;;;;;;;3.72;2.20;;;14.50;54.50;;;;;;5037689;28;20044;-46
2022/11/05 13:23:46;;;;;;;6.13;2.15;;;14.50;54.50;;;;;;5037680;28;20064;-43
2022/11/05 13:26:17;;;;;;;6.72;2.47;;;14.50;54.30;;;;;;5041878;28;20057;-45
2022/11/05 13:28:51;;;;;;;3.75;2.10;;;14.50;54.30;;;;;;5043037;28;20053;-41
2022/11/05 13:31:23;;;;;;;5.57;2.20;;;14.50;54.10;;;;;;5042124;28;20057;-42
2022/11/05 13:33:52;;;;;;;5.35;2.00;;;14.50;54.10;;;;;;5043258;28;20060;-46
2022/11/05 13:39:16;;;;;;;2.80;1.70;;;14.50;54.20;;;;;;5051246;28;20503;-45